Time;durP1;ratioP1;P1;durP2;ratioP2;P2;SDS_P1;SDS_P2;PMS_P1;PMS_P2;Temp;Humidity;BMP_temperature;BMP_pressure;BME280_temperature;BME280_humidity;BME280_pressure;Samples;Min_cycle;Max_cycle;Signal;HPM_P1;HPM_P2
2022/03/06 00:00:38;;;;;;;14.63;9.63;;;7.00;99.90;;;;;;5062549;28;20503;-83
2022/03/06 00:03:04;;;;;;;15.35;9.85;;;7.00;99.90;;;;;;5061968;28;20032;-83
2022/03/06 00:05:30;;;;;;;12.73;9.82;;;7.00;99.90;;;;;;5080621;28;20029;-83
2022/03/06 00:07:59;;;;;;;13.55;10.55;;;7.00;99.90;;;;;;5080357;28;20104;-83
2022/03/06 00:10:25;;;;;;;14.82;9.75;;;7.00;99.90;;;;;;5080246;28;20055;-84
2022/03/06 00:12:51;;;;;;;15.85;10.20;;;7.00;99.90;;;;;;5079453;28;20052;-83
2022/03/06 00:15:18;;;;;;;11.43;8.95;;;7.00;99.90;;;;;;5062593;28;20028;-84
2022/03/06 00:17:44;;;;;;;11.57;9.63;;;6.90;99.90;;;;;;5079920;28;20031;-84
2022/03/06 00:20:10;;;;;;;14.07;9.75;;;6.90;99.90;;;;;;5080223;28;20370;-84
2022/03/06 00:22:37;;;;;;;14.27;8.38;;;6.90;99.90;;;;;;5062153;28;20039;-84
2022/03/06 00:25:05;;;;;;;17.02;9.85;;;7.00;99.90;;;;;;5062121;28;20053;-83
2022/03/06 00:27:30;;;;;;;13.20;9.95;;;7.00;99.90;;;;;;5079814;28;20024;-84
2022/03/06 00:29:56;;;;;;;16.48;10.18;;;7.00;99.90;;;;;;5079850;28;20028;-83
2022/03/06 00:32:22;;;;;;;14.27;9.95;;;7.00;99.90;;;;;;5079634;28;20016;-83
2022/03/06 00:34:48;;;;;;;13.32;9.30;;;7.00;99.90;;;;;;5080006;28;20017;-83
2022/03/06 00:37:15;;;;;;;15.05;9.63;;;7.00;99.90;;;;;;5079805;28;20382;-83
2022/03/06 00:39:42;;;;;;;13.75;9.23;;;7.00;99.90;;;;;;5061521;28;20091;-83
2022/03/06 00:42:09;;;;;;;13.45;9.38;;;7.00;99.90;;;;;;5061636;28;20397;-83
2022/03/06 00:44:35;;;;;;;15.13;9.77;;;7.00;99.90;;;;;;5061642;28;20021;-83
2022/03/06 00:47:02;;;;;;;13.25;9.55;;;7.00;99.90;;;;;;5079304;28;20439;-83
2022/03/06 00:49:28;;;;;;;14.55;8.88;;;7.00;99.90;;;;;;5061515;28;20024;-83
2022/03/06 00:51:53;;;;;;;11.80;9.45;;;7.00;99.90;;;;;;5079673;28;20098;-83
2022/03/06 00:54:19;;;;;;;17.98;9.40;;;6.90;99.90;;;;;;5061640;28;20021;-84
2022/03/06 00:56:46;;;;;;;13.55;9.70;;;6.90;99.90;;;;;;5080004;28;20020;-84
2022/03/06 00:59:12;;;;;;;17.30;9.82;;;6.90;99.90;;;;;;5079653;28;20056;-83
2022/03/06 01:01:39;;;;;;;14.43;10.05;;;6.90;99.90;;;;;;5061385;28;20024;-83
2022/03/06 01:04:05;;;;;;;13.95;9.35;;;6.90;99.90;;;;;;5061327;28;20095;-83
2022/03/06 01:06:31;;;;;;;10.77;8.30;;;6.90;99.90;;;;;;5061279;28;20048;-83
2022/03/06 01:08:57;;;;;;;15.57;8.98;;;6.90;99.90;;;;;;5079145;28;20027;-83
2022/03/06 01:11:23;;;;;;;11.90;8.48;;;6.90;99.90;;;;;;5061284;28;20056;-83
2022/03/06 01:13:49;;;;;;;13.10;9.25;;;6.90;99.90;;;;;;5060946;28;20938;-83
2022/03/06 01:16:15;;;;;;;12.13;9.15;;;6.90;99.90;;;;;;5060802;28;20016;-83
2022/03/06 01:18:41;;;;;;;16.42;10.52;;;6.90;99.90;;;;;;5061151;28;20102;-83
2022/03/06 01:21:08;;;;;;;13.43;8.70;;;6.90;99.90;;;;;;5061134;28;20406;-84
2022/03/06 01:23:35;;;;;;;9.85;8.45;;;6.90;99.90;;;;;;5061099;28;20031;-84
2022/03/06 01:26:01;;;;;;;15.07;9.40;;;6.90;99.90;;;;;;5079056;28;20025;-84
2022/03/06 01:28:27;;;;;;;10.73;8.82;;;6.90;99.90;;;;;;5078511;28;20027;-84
2022/03/06 01:30:53;;;;;;;12.27;8.73;;;6.90;99.90;;;;;;5060702;28;20025;-84
2022/03/06 01:33:19;;;;;;;12.13;8.82;;;6.90;99.90;;;;;;5078665;28;20023;-84
2022/03/06 01:35:45;;;;;;;9.68;8.63;;;6.90;99.90;;;;;;5060912;28;20025;-85
2022/03/06 01:38:11;;;;;;;16.52;8.65;;;6.90;99.90;;;;;;5078552;28;20063;-84
2022/03/06 01:40:37;;;;;;;14.55;8.55;;;6.90;99.90;;;;;;5060835;28;20033;-84
2022/03/06 01:43:03;;;;;;;12.55;8.07;;;6.90;99.90;;;;;;5078460;28;20073;-84
2022/03/06 01:45:29;;;;;;;16.35;9.43;;;7.00;99.90;;;;;;5078567;28;20510;-83
2022/03/06 01:47:56;;;;;;;12.80;8.73;;;7.00;99.90;;;;;;5078638;28;20021;-84
2022/03/06 01:50:32;;;;;;;13.10;8.40;;;7.00;99.90;;;;;;5060313;28;20033;-84
2022/03/06 01:53:02;;;;;;;14.70;9.32;;;7.00;99.90;;;;;;5078348;28;20020;-84
2022/03/06 01:55:29;;;;;;;10.68;8.52;;;7.00;99.90;;;;;;5060380;28;20021;-83
2022/03/06 01:57:58;;;;;;;11.63;8.73;;;7.00;99.90;;;;;;5059970;28;20096;-83
2022/03/06 02:00:29;;;;;;;10.95;9.55;;;7.00;99.90;;;;;;5060054;28;20028;-83
2022/03/06 02:02:55;;;;;;;13.75;8.73;;;7.00;99.90;;;;;;5059762;28;20028;-83
2022/03/06 02:05:21;;;;;;;14.88;8.35;;;7.00;99.90;;;;;;5078020;28;20489;-82
2022/03/06 02:07:47;;;;;;;15.13;9.35;;;7.00;99.90;;;;;;5059893;28;20416;-83
2022/03/06 02:10:14;;;;;;;14.52;9.40;;;7.00;99.90;;;;;;5077940;28;20496;-83
2022/03/06 02:12:41;;;;;;;11.40;8.88;;;7.00;99.90;;;;;;5059920;28;20024;-83
2022/03/06 02:15:09;;;;;;;12.90;9.63;;;6.90;99.90;;;;;;5059527;28;20048;-82
2022/03/06 02:17:37;;;;;;;14.73;9.00;;;6.90;99.90;;;;;;5077629;28;20396;-83
2022/03/06 02:20:09;;;;;;;12.48;8.80;;;6.90;99.90;;;;;;5059911;28;20457;-83
2022/03/06 02:22:37;;;;;;;11.95;8.55;;;6.90;99.90;;;;;;5059774;28;20028;-83
2022/03/06 02:25:10;;;;;;;11.63;7.93;;;6.90;99.90;;;;;;5059776;28;20036;-84
2022/03/06 02:27:36;;;;;;;10.07;7.50;;;6.90;99.90;;;;;;5065088;28;20028;-83
2022/03/06 02:30:12;;;;;;;10.65;8.13;;;6.90;99.90;;;;;;5077757;28;20028;-83
2022/03/06 02:32:38;;;;;;;13.52;7.88;;;6.90;99.90;;;;;;5077882;28;20031;-83
2022/03/06 02:35:05;;;;;;;15.00;8.18;;;6.90;99.90;;;;;;5077702;28;20027;-83
2022/03/06 02:37:31;;;;;;;10.27;7.85;;;6.90;99.90;;;;;;5059853;28;20037;-83
2022/03/06 02:40:00;;;;;;;11.93;7.88;;;6.90;99.90;;;;;;5077926;28;20040;-83
2022/03/06 02:42:31;;;;;;;10.88;7.63;;;6.80;99.90;;;;;;5060719;28;20424;-83
2022/03/06 02:44:59;;;;;;;9.02;7.70;;;6.80;99.90;;;;;;5060303;28;20029;-83
2022/03/06 02:47:26;;;;;;;13.05;8.43;;;6.80;99.90;;;;;;5079228;28;20035;-82
2022/03/06 02:49:52;;;;;;;11.02;7.95;;;6.80;99.90;;;;;;5079375;28;20039;-82
2022/03/06 02:52:18;;;;;;;11.85;8.25;;;6.80;99.90;;;;;;5081292;28;20020;-83
2022/03/06 02:54:45;;;;;;;15.45;8.48;;;6.80;99.90;;;;;;5081259;28;20071;-82
2022/03/06 02:57:12;;;;;;;10.98;7.97;;;6.70;99.90;;;;;;5062713;28;20028;-83
2022/03/06 02:59:39;;;;;;;11.98;8.65;;;6.70;99.90;;;;;;5081318;28;20084;-83
2022/03/06 03:02:05;;;;;;;10.73;8.48;;;6.70;99.90;;;;;;5062996;28;20481;-83
2022/03/06 03:04:33;;;;;;;18.27;8.85;;;6.70;99.90;;;;;;5080367;28;20029;-82
2022/03/06 03:06:59;;;;;;;11.02;7.38;;;6.60;99.90;;;;;;5063158;28;20082;-83
2022/03/06 03:09:25;;;;;;;12.02;7.85;;;6.60;99.90;;;;;;5060000;28;20029;-82
2022/03/06 03:11:54;;;;;;;11.02;7.68;;;6.60;99.90;;;;;;5059449;28;20093;-83
2022/03/06 03:14:21;;;;;;;18.20;7.68;;;6.60;99.90;;;;;;5059534;28;20020;-83
2022/03/06 03:16:47;;;;;;;11.65;8.27;;;6.70;99.90;;;;;;5058907;28;20111;-84
2022/03/06 03:19:13;;;;;;;12.20;8.25;;;6.60;99.90;;;;;;5077068;28;20033;-84
2022/03/06 03:21:39;;;;;;;9.25;6.90;;;6.60;99.90;;;;;;5078480;28;20060;-84
2022/03/06 03:24:05;;;;;;;11.95;8.13;;;6.60;99.90;;;;;;5076889;28;20040;-84
2022/03/06 03:26:31;;;;;;;14.27;7.88;;;6.60;99.90;;;;;;5076903;28;20458;-83
2022/03/06 03:28:58;;;;;;;11.70;8.05;;;6.60;99.90;;;;;;5085016;28;20024;-83
2022/03/06 03:31:24;;;;;;;13.02;9.13;;;6.60;99.90;;;;;;5089544;28;20032;-84
2022/03/06 03:33:50;;;;;;;12.25;7.78;;;6.60;99.90;;;;;;5062807;28;20107;-83
2022/03/06 03:36:16;;;;;;;14.95;7.55;;;6.60;99.90;;;;;;5080870;28;20484;-83
2022/03/06 03:38:41;;;;;;;11.68;7.57;;;6.60;99.90;;;;;;5080828;28;20044;-84
2022/03/06 03:41:08;;;;;;;20.60;7.97;;;6.60;99.90;;;;;;5081174;28;20024;-83
2022/03/06 03:43:34;;;;;;;12.93;8.65;;;6.60;99.90;;;;;;5046491;28;20020;-84
2022/03/06 03:46:00;;;;;;;12.52;8.15;;;6.60;99.90;;;;;;5080663;28;20044;-83
2022/03/06 03:48:28;;;;;;;12.32;8.57;;;6.60;99.90;;;;;;5062674;28;20481;-83
2022/03/06 03:50:55;;;;;;;12.18;8.20;;;6.60;99.90;;;;;;5080901;28;20068;-83
2022/03/06 03:53:22;;;;;;;7.75;6.95;;;6.50;99.90;;;;;;5080498;28;20017;-83
2022/03/06 03:55:50;;;;;;;9.70;7.78;;;6.50;99.90;;;;;;5062951;28;20067;-83
2022/03/06 03:58:16;;;;;;;8.95;6.88;;;6.50;99.90;;;;;;5079350;28;20040;-83
2022/03/06 04:00:43;;;;;;;13.85;8.25;;;6.50;99.90;;;;;;5080493;28;20020;-83
2022/03/06 04:03:09;;;;;;;11.68;7.60;;;6.50;99.90;;;;;;5080237;28;20032;-83
2022/03/06 04:05:35;;;;;;;9.70;7.65;;;6.50;99.90;;;;;;5080396;28;20028;-84
2022/03/06 04:08:01;;;;;;;16.20;7.82;;;6.40;99.90;;;;;;5080359;28;20074;-83
2022/03/06 04:10:26;;;;;;;10.18;7.47;;;6.50;99.90;;;;;;5062537;28;20032;-83
2022/03/06 04:12:52;;;;;;;12.95;7.57;;;6.50;99.90;;;;;;5067256;28;20027;-83
2022/03/06 04:15:18;;;;;;;10.70;7.32;;;6.40;99.90;;;;;;5062201;28;20024;-83
2022/03/06 04:17:44;;;;;;;10.75;7.55;;;6.40;99.90;;;;;;5062255;28;20020;-83
2022/03/06 04:20:10;;;;;;;11.25;7.45;;;6.40;99.90;;;;;;5062339;28;20024;-83
2022/03/06 04:22:36;;;;;;;11.25;7.40;;;6.40;99.90;;;;;;5062683;28;20056;-83
2022/03/06 04:25:03;;;;;;;14.50;6.97;;;6.40;99.90;;;;;;5080269;28;20031;-83
2022/03/06 04:27:28;;;;;;;11.95;7.82;;;6.40;99.90;;;;;;5080102;28;20369;-83
2022/03/06 04:29:54;;;;;;;12.15;7.30;;;6.40;99.90;;;;;;5062114;28;20035;-83
2022/03/06 04:32:20;;;;;;;13.25;7.47;;;6.40;99.90;;;;;;5060614;28;20021;-83
2022/03/06 04:34:46;;;;;;;9.60;6.43;;;6.30;99.90;;;;;;5080053;28;20066;-83
2022/03/06 04:37:12;;;;;;;12.15;8.30;;;6.30;99.90;;;;;;5061961;28;20024;-83
2022/03/06 04:39:38;;;;;;;7.93;6.63;;;6.30;99.90;;;;;;5061198;28;20416;-83
2022/03/06 04:42:05;;;;;;;10.20;6.85;;;6.30;99.90;;;;;;5079861;28;20021;-83
2022/03/06 04:44:30;;;;;;;11.63;7.70;;;6.30;99.90;;;;;;5079886;28;20017;-83
2022/03/06 04:46:56;;;;;;;12.25;6.93;;;6.30;99.90;;;;;;5079292;28;20537;-83
2022/03/06 04:49:22;;;;;;;11.75;7.55;;;6.30;99.90;;;;;;5079627;28;20028;-83
2022/03/06 04:51:48;;;;;;;11.85;7.18;;;6.30;99.90;;;;;;5061579;28;20378;-83
2022/03/06 04:54:14;;;;;;;14.13;7.05;;;6.30;99.90;;;;;;5061485;28;20024;-83
2022/03/06 04:56:40;;;;;;;13.20;6.63;;;6.30;99.90;;;;;;5061246;28;20507;-83
2022/03/06 04:59:06;;;;;;;10.93;6.78;;;6.20;99.90;;;;;;5079842;28;20056;-83
2022/03/06 05:01:32;;;;;;;11.30;6.70;;;6.20;99.90;;;;;;5079123;28;20078;-83
2022/03/06 05:04:00;;;;;;;12.15;7.53;;;6.20;99.90;;;;;;5079366;28;20048;-83
2022/03/06 05:06:26;;;;;;;9.77;7.10;;;6.20;99.90;;;;;;5079248;28;20017;-83
2022/03/06 05:08:52;;;;;;;10.50;6.68;;;6.20;99.90;;;;;;5079399;28;20025;-83
2022/03/06 05:11:18;;;;;;;14.30;7.05;;;6.20;99.90;;;;;;5061495;28;20396;-83
2022/03/06 05:13:44;;;;;;;10.48;6.70;;;6.20;99.90;;;;;;5060996;28;20056;-83
2022/03/06 05:16:10;;;;;;;11.27;7.20;;;6.20;99.90;;;;;;5060853;28;20485;-83
2022/03/06 05:18:36;;;;;;;10.50;6.88;;;6.20;99.90;;;;;;5079165;28;20078;-83
2022/03/06 05:21:02;;;;;;;12.40;7.30;;;6.20;99.90;;;;;;5060933;28;20029;-82
2022/03/06 05:23:28;;;;;;;7.65;6.47;;;6.20;99.90;;;;;;5079082;28;20017;-82
2022/03/06 05:25:54;;;;;;;10.23;6.65;;;6.20;99.90;;;;;;5078344;28;20511;-82
2022/03/06 05:28:21;;;;;;;9.93;7.22;;;6.10;99.90;;;;;;5078112;28;20477;-82
2022/03/06 05:30:47;;;;;;;82.75;32.33;;;6.10;99.90;;;;;;5077103;28;20509;-82
2022/03/06 05:33:13;;;;;;;11.88;7.65;;;6.10;99.90;;;;;;5059510;28;20024;-82
2022/03/06 05:35:39;;;;;;;12.10;7.35;;;6.10;99.90;;;;;;5078142;28;20028;-82
2022/03/06 05:38:05;;;;;;;532.55;209.27;;;6.10;99.90;;;;;;5073330;28;20045;-82
2022/03/06 05:40:31;;;;;;;14.20;9.13;;;6.10;99.90;;;;;;5058999;28;20029;-82
2022/03/06 05:42:57;;;;;;;26.70;12.63;;;6.10;99.90;;;;;;5078047;28;20030;-82
2022/03/06 05:45:24;;;;;;;27.67;11.93;;;6.00;99.90;;;;;;5057388;28;20028;-82
2022/03/06 05:47:49;;;;;;;14.00;9.18;;;6.00;99.90;;;;;;5077949;28;20069;-82
2022/03/06 05:50:16;;;;;;;10.23;6.60;;;6.10;99.90;;;;;;5073583;28;20021;-82
2022/03/06 05:52:42;;;;;;;176.32;64.53;;;6.00;99.90;;;;;;5074116;28;20128;-82
2022/03/06 05:55:08;;;;;;;332.48;118.75;;;6.00;99.90;;;;;;5060078;28;20029;-82
2022/03/06 05:57:35;;;;;;;167.57;63.75;;;6.00;99.90;;;;;;5060496;28;20102;-82
2022/03/06 06:00:01;;;;;;;24.55;12.00;;;6.00;99.90;;;;;;5078865;28;20031;-81
2022/03/06 06:02:27;;;;;;;125.45;44.55;;;6.00;99.90;;;;;;5078022;28;20103;-81
2022/03/06 06:04:53;;;;;;;24.15;10.85;;;6.00;99.90;;;;;;5060548;28;20024;-81
2022/03/06 06:07:18;;;;;;;9.43;7.57;;;6.00;99.90;;;;;;5060538;28;20024;-82
2022/03/06 06:09:44;;;;;;;36.20;14.75;;;6.00;99.90;;;;;;5077978;28;20531;-82
2022/03/06 06:12:10;;;;;;;55.80;21.55;;;6.00;99.90;;;;;;5060202;28;20024;-82
2022/03/06 06:14:36;;;;;;;11.45;7.07;;;6.00;99.90;;;;;;5077688;28;20020;-82
2022/03/06 06:17:02;;;;;;;12.15;7.20;;;6.00;99.90;;;;;;5059992;28;20025;-81
2022/03/06 06:19:28;;;;;;;183.68;74.28;;;5.90;99.90;;;;;;5079432;28;20024;-81
2022/03/06 06:21:54;;;;;;;12.57;6.82;;;5.90;99.90;;;;;;5061399;28;20048;-81
2022/03/06 06:24:19;;;;;;;11.85;7.43;;;5.90;99.90;;;;;;5079692;28;20035;-82
2022/03/06 06:26:47;;;;;;;8.90;7.07;;;5.90;99.90;;;;;;5062239;28;20024;-82
2022/03/06 06:29:13;;;;;;;56.25;25.60;;;5.90;99.90;;;;;;5078098;28;20099;-82
2022/03/06 06:31:40;;;;;;;42.22;20.52;;;5.90;99.90;;;;;;5059590;28;20024;-82
2022/03/06 06:34:06;;;;;;;9.20;6.97;;;6.00;99.90;;;;;;5060174;28;20031;-81
2022/03/06 06:36:32;;;;;;;8.50;7.30;;;6.00;99.90;;;;;;5077482;28;20020;-82
2022/03/06 06:38:57;;;;;;;23.13;11.63;;;6.00;99.90;;;;;;5059387;28;20052;-81
2022/03/06 06:41:24;;;;;;;11.05;6.90;;;6.00;99.90;;;;;;5059541;28;20028;-82
2022/03/06 06:43:50;;;;;;;13.05;8.38;;;6.00;99.90;;;;;;5077708;28;20029;-80
2022/03/06 06:46:16;;;;;;;10.05;7.45;;;6.00;99.90;;;;;;5059140;28;20493;-82
2022/03/06 06:48:42;;;;;;;15.32;8.38;;;6.00;99.90;;;;;;5059524;28;20044;-82
2022/03/06 06:51:09;;;;;;;14.65;8.43;;;6.00;99.90;;;;;;5077381;28;20024;-81
2022/03/06 06:53:36;;;;;;;11.68;7.90;;;6.10;99.90;;;;;;5077729;28;20029;-82
2022/03/06 06:56:02;;;;;;;13.43;7.55;;;6.00;99.90;;;;;;5077255;28;20053;-82
2022/03/06 06:58:28;;;;;;;13.23;7.75;;;6.10;99.90;;;;;;5077357;28;20044;-82
2022/03/06 07:00:54;;;;;;;12.60;7.72;;;6.10;99.90;;;;;;5076652;28;20039;-82
2022/03/06 07:03:20;;;;;;;14.35;7.80;;;6.10;99.90;;;;;;5077286;28;20108;-81
2022/03/06 07:05:47;;;;;;;53.80;22.75;;;6.10;99.90;;;;;;5059147;28;20025;-81
2022/03/06 07:08:13;;;;;;;14.85;10.35;;;6.10;99.90;;;;;;5077411;28;20032;-83
2022/03/06 07:10:39;;;;;;;81.95;40.15;;;6.20;99.90;;;;;;5059024;28;20059;-82
2022/03/06 07:13:05;;;;;;;11.57;7.90;;;6.20;99.90;;;;;;5059144;28;20100;-81
2022/03/06 07:15:32;;;;;;;18.33;9.75;;;6.20;99.90;;;;;;5055670;28;20052;-83
2022/03/06 07:18:01;;;;;;;12.32;7.78;;;6.20;99.90;;;;;;5077582;28;20023;-83
2022/03/06 07:20:28;;;;;;;12.57;7.70;;;6.30;99.90;;;;;;5059315;28;20028;-83
2022/03/06 07:22:54;;;;;;;8.80;7.28;;;6.30;99.90;;;;;;5077471;28;20087;-82
2022/03/06 07:25:21;;;;;;;11.85;7.55;;;6.30;99.90;;;;;;5077235;28;20099;-82
2022/03/06 07:27:47;;;;;;;9.48;7.03;;;6.40;99.90;;;;;;5076350;28;20505;-83
2022/03/06 07:30:13;;;;;;;24.25;12.75;;;6.40;99.90;;;;;;5059462;28;20366;-83
2022/03/06 07:32:43;;;;;;;9.82;7.28;;;6.40;99.90;;;;;;5059307;28;20035;-83
2022/03/06 07:35:10;;;;;;;17.50;9.18;;;6.50;99.90;;;;;;5058812;28;20028;-82
2022/03/06 07:37:35;;;;;;;15.20;7.85;;;6.50;99.90;;;;;;5077309;28;20027;-82
2022/03/06 07:40:01;;;;;;;17.25;8.05;;;6.60;99.90;;;;;;5076915;28;20044;-82
2022/03/06 07:42:27;;;;;;;39.40;15.95;;;6.60;99.90;;;;;;5076941;28;20546;-82
2022/03/06 07:44:53;;;;;;;159.23;59.30;;;6.60;99.90;;;;;;5058326;28;20412;-83
2022/03/06 07:47:19;;;;;;;14.27;8.27;;;6.60;99.90;;;;;;5076345;28;20020;-82
2022/03/06 07:49:45;;;;;;;110.85;41.45;;;6.60;99.90;;;;;;5076424;28;20046;-83
2022/03/06 07:52:11;;;;;;;12.40;7.57;;;6.70;99.90;;;;;;5076424;28;20021;-83
2022/03/06 07:54:37;;;;;;;11.63;7.38;;;6.70;99.90;;;;;;5076582;28;20521;-82
2022/03/06 07:57:03;;;;;;;10.13;7.20;;;6.70;99.90;;;;;;5076574;28;20088;-82
2022/03/06 07:59:28;;;;;;;8.70;7.80;;;6.70;99.90;;;;;;5076484;28;20387;-82
2022/03/06 08:01:55;;;;;;;10.63;7.35;;;6.70;99.90;;;;;;5076028;28;20021;-82
2022/03/06 08:04:21;;;;;;;15.63;8.95;;;6.80;99.90;;;;;;5074444;28;20063;-82
2022/03/06 08:06:50;;;;;;;11.73;7.43;;;6.80;99.90;;;;;;5058236;28;20017;-83
2022/03/06 08:09:17;;;;;;;10.95;7.55;;;6.80;99.90;;;;;;5058556;28;20016;-82
2022/03/06 08:11:42;;;;;;;8.68;7.25;;;6.90;99.90;;;;;;5076913;28;20035;-82
2022/03/06 08:14:08;;;;;;;10.35;7.35;;;6.90;99.90;;;;;;5060955;28;20103;-82
2022/03/06 08:16:34;;;;;;;16.60;7.75;;;6.90;99.90;;;;;;5080515;28;20447;-82
2022/03/06 08:19:00;;;;;;;11.35;7.57;;;7.00;99.90;;;;;;5080440;28;20017;-83
2022/03/06 08:21:26;;;;;;;10.55;7.55;;;7.00;99.90;;;;;;5080277;28;20036;-83
2022/03/06 08:23:52;;;;;;;18.05;8.25;;;7.00;99.90;;;;;;5081117;28;20088;-81
2022/03/06 08:26:18;;;;;;;12.57;7.95;;;7.10;99.90;;;;;;5081015;28;20141;-82
2022/03/06 08:28:44;;;;;;;10.23;7.60;;;7.10;99.90;;;;;;5061879;28;20025;-81
2022/03/06 08:31:10;;;;;;;10.85;7.85;;;7.20;99.90;;;;;;5079928;28;20484;-82
2022/03/06 08:33:37;;;;;;;19.40;11.50;;;7.30;99.90;;;;;;5079966;28;20024;-82
2022/03/06 08:36:03;;;;;;;13.85;7.72;;;7.30;99.90;;;;;;5061932;28;20021;-82
2022/03/06 08:38:29;;;;;;;16.85;9.32;;;7.40;99.90;;;;;;5078163;28;20052;-80
2022/03/06 08:40:55;;;;;;;18.33;9.35;;;7.50;99.90;;;;;;5061048;28;20028;-81
2022/03/06 08:43:21;;;;;;;15.02;8.02;;;7.60;99.90;;;;;;5079503;28;20035;-81
2022/03/06 08:45:47;;;;;;;13.55;8.75;;;7.70;99.90;;;;;;5079760;28;20051;-81
2022/03/06 08:48:13;;;;;;;10.73;8.05;;;7.80;99.90;;;;;;5061588;28;20063;-81
2022/03/06 08:50:39;;;;;;;10.48;8.40;;;7.90;99.90;;;;;;5061549;28;20074;-81
2022/03/06 08:53:06;;;;;;;13.15;8.73;;;8.00;99.90;;;;;;5061669;28;20012;-81
2022/03/06 08:55:32;;;;;;;12.20;8.27;;;8.00;99.90;;;;;;5061683;28;20029;-81
2022/03/06 08:57:58;;;;;;;13.15;7.90;;;8.10;99.90;;;;;;5061426;28;20017;-81
2022/03/06 09:00:24;;;;;;;11.40;7.95;;;8.00;99.90;;;;;;5061249;28;20123;-80
2022/03/06 09:02:50;;;;;;;21.50;8.63;;;8.10;99.90;;;;;;5079328;28;20027;-81
2022/03/06 09:05:16;;;;;;;10.20;7.72;;;8.10;99.90;;;;;;5061691;28;20115;-82
2022/03/06 09:07:42;;;;;;;14.95;8.50;;;8.20;99.90;;;;;;5079348;28;20025;-81
2022/03/06 09:10:09;;;;;;;13.00;9.00;;;8.30;99.90;;;;;;5061201;28;20389;-81
2022/03/06 09:12:35;;;;;;;18.00;10.68;;;8.30;99.90;;;;;;5061065;28;20028;-81
2022/03/06 09:15:01;;;;;;;122.80;54.75;;;8.40;99.90;;;;;;5061232;28;20035;-81
2022/03/06 09:17:27;;;;;;;16.38;9.95;;;8.50;99.90;;;;;;5061039;28;20021;-81
2022/03/06 09:19:53;;;;;;;14.57;9.23;;;8.60;99.90;;;;;;5079232;28;20095;-80
2022/03/06 09:22:18;;;;;;;12.18;8.77;;;8.60;99.90;;;;;;5078981;28;20378;-81
2022/03/06 09:24:44;;;;;;;14.00;8.60;;;8.70;99.90;;;;;;5079110;28;20020;-80
2022/03/06 09:27:10;;;;;;;13.18;9.45;;;8.70;99.90;;;;;;5060275;28;20040;-81
2022/03/06 09:29:36;;;;;;;15.82;10.05;;;8.80;99.90;;;;;;5077668;28;20485;-79
2022/03/06 09:32:02;;;;;;;15.98;11.57;;;8.70;99.90;;;;;;5078601;28;20016;-78
2022/03/06 09:34:28;;;;;;;14.88;7.97;;;8.80;99.90;;;;;;5078959;28;20111;-79
2022/03/06 09:36:54;;;;;;;11.45;8.35;;;8.90;99.90;;;;;;5060663;28;20028;-78
2022/03/06 09:39:19;;;;;;;11.82;8.00;;;8.90;99.90;;;;;;5060483;28;20072;-79
2022/03/06 09:41:49;;;;;;;11.30;7.22;;;9.10;99.90;;;;;;5078444;28;20024;-80
2022/03/06 09:44:15;;;;;;;7.97;6.60;;;9.20;99.90;;;;;;5060771;28;20036;-81
2022/03/06 09:46:41;;;;;;;8.32;6.03;;;9.30;99.90;;;;;;5060486;28;20024;-81
2022/03/06 09:49:08;;;;;;;10.38;6.45;;;9.30;99.90;;;;;;5078631;28;20032;-82
2022/03/06 09:51:38;;;;;;;8.10;6.70;;;9.50;99.90;;;;;;5078392;28;20021;-80
2022/03/06 09:54:05;;;;;;;10.82;6.22;;;9.50;99.90;;;;;;5078816;28;20031;-82
2022/03/06 09:56:31;;;;;;;12.50;6.22;;;9.50;99.90;;;;;;5060467;28;20025;-80
2022/03/06 09:58:57;;;;;;;13.68;7.03;;;9.50;99.90;;;;;;5078451;28;20031;-81
2022/03/06 10:01:23;;;;;;;12.57;6.03;;;9.60;99.90;;;;;;5077962;28;20024;-81
2022/03/06 10:03:49;;;;;;;12.10;6.82;;;9.70;99.90;;;;;;5077609;28;20115;-81
2022/03/06 10:06:15;;;;;;;9.00;5.20;;;9.80;99.90;;;;;;5078129;28;20529;-81
2022/03/06 10:08:41;;;;;;;11.38;5.72;;;10.00;99.90;;;;;;5078277;28;20550;-80
2022/03/06 10:11:12;;;;;;;9.82;5.38;;;10.00;99.90;;;;;;5077885;28;20020;-78
2022/03/06 10:13:40;;;;;;;12.35;6.03;;;10.00;99.90;;;;;;5078033;28;20020;-81
2022/03/06 10:16:17;;;;;;;8.48;5.53;;;9.90;99.90;;;;;;5077751;28;20044;-79
2022/03/06 10:18:46;;;;;;;8.60;5.45;;;10.00;99.90;;;;;;5078095;28;20067;-81
2022/03/06 10:21:21;;;;;;;7.85;5.65;;;9.90;99.90;;;;;;5053646;28;20035;-82
2022/03/06 10:23:50;;;;;;;13.43;5.78;;;9.90;99.90;;;;;;5078056;28;20481;-79
2022/03/06 10:26:19;;;;;;;11.90;7.10;;;9.90;99.90;;;;;;5077976;28;20021;-82
2022/03/06 10:28:48;;;;;;;7.65;5.50;;;9.90;99.90;;;;;;5077886;28;20439;-82
2022/03/06 10:31:15;;;;;;;12.95;5.57;;;9.90;99.90;;;;;;5077603;28;20028;-81
2022/03/06 10:33:56;;;;;;;7.25;5.30;;;9.90;99.90;;;;;;5077660;28;20042;-80
2022/03/06 10:36:35;;;;;;;7.22;5.43;;;9.90;99.90;;;;;;5077367;28;20016;-81
2022/03/06 10:39:10;;;;;;;9.00;5.82;;;9.90;99.90;;;;;;5059540;28;20048;-81
2022/03/06 10:41:38;;;;;;;7.97;4.60;;;10.00;99.90;;;;;;5059367;28;20452;-81
2022/03/06 10:44:06;;;;;;;10.40;5.47;;;10.10;99.90;;;;;;5077657;28;20037;-82
2022/03/06 10:46:34;;;;;;;7.45;5.00;;;10.10;99.90;;;;;;5059177;28;20393;-85
2022/03/06 10:49:11;;;;;;;8.13;4.78;;;10.30;99.90;;;;;;5059935;28;20052;-86
2022/03/06 10:51:47;;;;;;;8.73;5.03;;;10.30;99.90;;;;;;5076990;28;20025;-82
2022/03/06 10:54:14;;;;;;;10.82;5.00;;;10.40;99.90;;;;;;5072454;28;20510;-82
2022/03/06 10:56:48;;;;;;;5.88;4.82;;;10.60;99.90;;;;;;5074678;28;20491;-83
2022/03/06 10:59:24;;;;;;;13.35;5.82;;;10.60;99.90;;;;;;5076852;28;20020;-83
2022/03/06 11:01:51;;;;;;;10.23;5.95;;;10.70;99.90;;;;;;5057012;28;20393;-82
2022/03/06 11:04:19;;;;;;;10.18;5.22;;;10.70;99.90;;;;;;5076025;28;20028;-85
2022/03/06 11:06:47;;;;;;;8.65;4.88;;;10.80;99.90;;;;;;5077384;28;20544;-83
2022/03/06 11:09:18;;;;;;;14.13;5.85;;;10.80;99.90;;;;;;5077140;28;20055;-82
2022/03/06 11:11:46;;;;;;;7.55;4.75;;;11.00;99.90;;;;;;5076962;28;20477;-82
2022/03/06 11:14:13;;;;;;;10.00;5.13;;;11.00;99.90;;;;;;5058707;28;20021;-83
2022/03/06 11:16:41;;;;;;;6.97;4.80;;;11.00;99.90;;;;;;5058949;28;20400;-79
2022/03/06 11:19:08;;;;;;;6.55;4.95;;;10.80;99.90;;;;;;5077061;28;20099;-83
2022/03/06 11:21:38;;;;;;;10.43;4.93;;;10.80;99.90;;;;;;5058828;28;20107;-79
2022/03/06 11:24:15;;;;;;;9.63;5.20;;;10.80;99.90;;;;;;5077136;28;20082;-82
2022/03/06 11:27:10;;;;;;;11.85;5.68;;;10.80;99.90;;;;;;5059009;28;20027;-83
2022/03/06 11:30:00;;;;;;;8.27;5.68;;;10.70;99.90;;;;;;4987813;28;20035;-85
2022/03/06 11:32:29;;;;;;;7.07;4.73;;;10.70;99.90;;;;;;5059026;28;20029;-85
2022/03/06 11:35:23;;;;;;;10.00;5.47;;;10.70;99.90;;;;;;5076885;28;20025;-83
2022/03/06 11:37:56;;;;;;;7.50;5.25;;;10.70;99.90;;;;;;5052507;28;20569;-84
2022/03/06 11:40:53;;;;;;;7.50;5.25;;;10.70;99.90;;;;;;5076589;28;20048;-80
2022/03/06 11:43:31;;;;;;;10.52;5.05;;;10.70;99.90;;;;;;5076493;28;20855;-77
2022/03/06 11:46:06;;;;;;;9.85;4.35;;;10.60;99.90;;;;;;5058103;28;20086;-76
2022/03/06 11:48:35;;;;;;;6.90;4.78;;;10.60;99.90;;;;;;5078062;28;20028;-76
2022/03/06 11:51:21;;;;;;;7.75;4.50;;;10.60;99.90;;;;;;5062990;28;20028;-76
2022/03/06 11:54:06;;;;;;;5.20;3.83;;;10.50;99.90;;;;;;5069810;28;20123;-77
2022/03/06 11:56:32;;;;;;;9.55;5.07;;;10.50;99.90;;;;;;5080697;28;20021;-76
2022/03/06 11:59:06;;;;;;;7.78;4.57;;;10.50;99.90;;;;;;5080704;28;20023;-77
2022/03/06 12:01:41;;;;;;;5.20;4.07;;;10.50;99.90;;;;;;5062138;28;20077;-77
2022/03/06 12:04:15;;;;;;;7.57;5.00;;;10.20;99.90;;;;;;5062414;28;20024;-77
2022/03/06 12:06:52;;;;;;;10.00;6.38;;;10.30;99.90;;;;;;5080402;28;20017;-78
2022/03/06 12:09:23;;;;;;;10.45;5.85;;;10.40;99.90;;;;;;5075985;28;20116;-77
2022/03/06 12:11:52;;;;;;;8.38;6.22;;;10.40;99.90;;;;;;5062318;28;20028;-77
2022/03/06 12:14:21;;;;;;;8.63;6.40;;;10.50;99.90;;;;;;5080180;28;20020;-77
2022/03/06 12:17:06;;;;;;;8.40;5.05;;;10.40;99.90;;;;;;5078743;28;20020;-77
2022/03/06 12:19:35;;;;;;;8.15;5.78;;;10.40;99.90;;;;;;5077468;28;20163;-78
2022/03/06 12:22:19;;;;;;;9.68;5.15;;;10.40;99.90;;;;;;5074393;28;20503;-78
2022/03/06 12:24:47;;;;;;;11.52;6.32;;;10.40;99.90;;;;;;5080120;28;20362;-77
2022/03/06 12:27:18;;;;;;;13.55;5.65;;;10.30;99.90;;;;;;5061902;28;20032;-78
2022/03/06 12:29:47;;;;;;;;;;;10.30;99.90;;;;;;5073662;28;20092;-77
2022/03/06 12:32:25;;;;;;;11.98;6.90;;;10.20;99.90;;;;;;5081439;28;19911;-78
2022/03/06 12:35:12;;;;;;;10.68;7.38;;;10.10;99.90;;;;;;5061735;28;20029;-77
2022/03/06 12:37:58;;;;;;;11.68;6.18;;;10.00;99.90;;;;;;5051259;28;20032;-78
2022/03/06 12:40:29;;;;;;;8.48;5.35;;;10.00;99.90;;;;;;5079787;28;20042;-77
2022/03/06 12:43:01;;;;;;;11.95;7.10;;;9.90;99.90;;;;;;5061969;28;20024;-78
2022/03/06 12:45:27;;;;;;;11.82;7.82;;;9.80;99.90;;;;;;5061409;28;20048;-78
2022/03/06 12:47:53;;;;;;;13.55;9.23;;;9.80;99.90;;;;;;5078755;28;20016;-77